createdAt,value
2023-01-09T00:00:32.463Z,20.51
2023-01-09T00:02:59.043Z,20.55
2023-01-09T00:05:25.705Z,20.55
2023-01-09T00:07:52.263Z,20.53
2023-01-09T00:10:19.202Z,20.55
2023-01-09T00:12:45.768Z,20.55
2023-01-09T00:15:12.567Z,20.54
2023-01-09T00:17:39.183Z,20.51
2023-01-09T00:20:07.905Z,20.50
2023-01-09T00:22:34.451Z,20.50
2023-01-09T00:25:01.013Z,20.49
2023-01-09T00:27:31.824Z,20.49
2023-01-09T00:29:58.836Z,20.49
2023-01-09T00:32:26.416Z,20.46
2023-01-09T00:34:53.422Z,20.44
2023-01-09T00:37:20.232Z,20.49
2023-01-09T00:39:46.863Z,20.46
2023-01-09T00:42:22.982Z,20.51
2023-01-09T00:44:52.672Z,20.49
2023-01-09T00:47:28.863Z,20.51
2023-01-09T00:50:00.052Z,20.49
2023-01-09T00:52:28.005Z,20.51
2023-01-09T00:54:54.615Z,20.51
2023-01-09T00:57:21.334Z,20.51
2023-01-09T00:59:47.879Z,20.49
2023-01-09T01:02:14.644Z,20.50
2023-01-09T01:05:00.131Z,20.48
2023-01-09T01:07:38.741Z,20.45
2023-01-09T01:10:12.556Z,20.49
2023-01-09T01:12:40.088Z,20.48
2023-01-09T01:15:08.216Z,20.49
2023-01-09T01:17:37.368Z,20.43
2023-01-09T01:20:05.746Z,20.59
2023-01-09T01:22:32.345Z,20.74
2023-01-09T01:24:58.986Z,20.95
2023-01-09T01:27:25.603Z,21.08
2023-01-09T01:29:52.591Z,21.19
2023-01-09T01:32:19.160Z,21.32
2023-01-09T01:34:47.617Z,21.39
2023-01-09T01:37:14.595Z,21.46
2023-01-09T01:39:41.341Z,21.55
2023-01-09T01:42:07.937Z,21.64
2023-01-09T01:44:55.934Z,21.71
2023-01-09T01:47:27.608Z,21.82
2023-01-09T01:49:54.365Z,21.89
2023-01-09T01:52:21.856Z,21.91
2023-01-09T01:54:49.225Z,21.95
2023-01-09T01:57:15.826Z,21.98
2023-01-09T02:00:03.306Z,22.09
2023-01-09T02:02:31.960Z,22.08
2023-01-09T02:05:00.215Z,22.09
2023-01-09T02:07:26.791Z,22.12
2023-01-09T02:09:54.591Z,22.14
2023-01-09T02:12:24.242Z,22.19
2023-01-09T02:15:12.699Z,22.25
2023-01-09T02:17:59.870Z,22.29
2023-01-09T02:20:39.670Z,22.31
2023-01-09T02:23:39.037Z,22.36
2023-01-09T02:26:30.730Z,22.34
2023-01-09T02:28:57.183Z,22.16
2023-01-09T02:31:32.906Z,22.03
2023-01-09T02:34:12.578Z,21.85
2023-01-09T02:37:04.419Z,21.66
2023-01-09T02:39:47.090Z,21.59
2023-01-09T02:42:21.119Z,21.47
2023-01-09T02:44:47.936Z,21.37
2023-01-09T02:47:17.530Z,21.26
2023-01-09T02:49:48.424Z,21.14
2023-01-09T02:52:55.880Z,21.04
2023-01-09T02:55:51.082Z,20.96
2023-01-09T02:58:44.544Z,20.86
2023-01-09T03:01:38.148Z,20.83
2023-01-09T03:04:21.201Z,20.78
2023-01-09T03:06:57.824Z,20.80
2023-01-09T03:09:27.907Z,20.76
2023-01-09T03:12:29.513Z,20.77
2023-01-09T03:14:59.689Z,20.78
2023-01-09T03:17:32.296Z,20.87
2023-01-09T03:20:02.931Z,20.89
2023-01-09T03:22:29.513Z,20.95
2023-01-09T03:24:56.291Z,20.85
2023-01-09T03:27:23.053Z,20.85
2023-01-09T03:29:49.794Z,20.88
2023-01-09T03:32:16.352Z,20.84
2023-01-09T03:34:42.884Z,20.91
2023-01-09T03:37:09.467Z,20.92
2023-01-09T03:39:36.058Z,20.84
2023-01-09T03:42:02.596Z,20.93
2023-01-09T03:44:29.147Z,20.88
2023-01-09T03:46:55.695Z,20.93
2023-01-09T03:49:22.279Z,20.81
2023-01-09T03:51:48.875Z,20.77
2023-01-09T03:54:15.433Z,20.81
2023-01-09T03:56:41.984Z,20.80
2023-01-09T03:59:08.539Z,20.78
2023-01-09T04:01:35.426Z,20.71
2023-01-09T04:04:02.145Z,20.71
2023-01-09T04:06:29.232Z,20.73
2023-01-09T04:08:55.819Z,20.71
2023-01-09T04:11:22.558Z,20.70
2023-01-09T04:13:49.173Z,20.67
2023-01-09T04:16:15.825Z,20.62
2023-01-09T04:18:42.407Z,20.61
2023-01-09T04:21:08.984Z,20.62
2023-01-09T04:23:35.517Z,20.63
2023-01-09T04:26:02.984Z,20.58
2023-01-09T04:28:29.539Z,20.60
2023-01-09T04:30:56.089Z,20.58
2023-01-09T04:33:22.643Z,20.57
2023-01-09T04:35:49.187Z,20.58
2023-01-09T04:38:15.746Z,20.57
2023-01-09T04:40:42.284Z,20.51
2023-01-09T04:43:08.866Z,20.47
2023-01-09T04:45:35.535Z,20.52
2023-01-09T04:48:02.108Z,20.48
2023-01-09T04:50:29.952Z,20.49
2023-01-09T04:52:58.087Z,20.50
2023-01-09T04:55:24.624Z,20.52
2023-01-09T04:57:51.181Z,20.51
2023-01-09T05:00:17.965Z,20.55
2023-01-09T05:02:44.517Z,20.57
2023-01-09T05:05:12.022Z,20.55
2023-01-09T05:07:39.207Z,20.59
2023-01-09T05:10:07.415Z,20.57
2023-01-09T05:12:36.222Z,20.55
2023-01-09T05:15:04.144Z,20.59
2023-01-09T05:17:30.702Z,20.53
2023-01-09T05:19:57.291Z,20.50
2023-01-09T05:22:23.897Z,20.50
2023-01-09T05:24:50.512Z,20.44
2023-01-09T05:27:17.088Z,20.41
2023-01-09T05:29:43.631Z,20.42
2023-01-09T05:32:10.226Z,20.43
2023-01-09T05:34:36.847Z,20.36
2023-01-09T05:37:03.403Z,20.45
2023-01-09T05:39:29.976Z,20.37
2023-01-09T05:41:56.591Z,20.36
2023-01-09T05:44:23.157Z,20.33
2023-01-09T05:46:49.729Z,20.36
2023-01-09T05:49:16.275Z,20.42
2023-01-09T05:51:42.858Z,20.40
2023-01-09T05:54:09.464Z,20.46
2023-01-09T05:56:36.087Z,20.47
2023-01-09T05:59:02.649Z,20.49
2023-01-09T06:01:29.248Z,20.52
2023-01-09T06:03:55.948Z,20.55
2023-01-09T06:06:24.165Z,20.56
2023-01-09T06:08:50.730Z,20.54
2023-01-09T06:11:17.319Z,20.55
2023-01-09T06:13:43.879Z,20.55
2023-01-09T06:16:10.513Z,20.54
2023-01-09T06:18:37.097Z,20.57
2023-01-09T06:21:03.786Z,20.58
2023-01-09T06:23:30.383Z,20.60
2023-01-09T06:25:56.966Z,20.59
2023-01-09T06:28:23.573Z,20.59
2023-01-09T06:30:52.282Z,20.63
2023-01-09T06:33:19.307Z,20.60
2023-01-09T06:35:45.927Z,20.60
2023-01-09T06:38:12.480Z,20.64
2023-01-09T06:40:39.072Z,20.63
2023-01-09T06:43:06.433Z,20.67
2023-01-09T06:45:33.706Z,20.65
2023-01-09T06:48:00.283Z,20.57
2023-01-09T06:50:26.890Z,20.62
2023-01-09T06:52:53.521Z,20.53
2023-01-09T06:55:20.164Z,20.54
2023-01-09T06:57:46.814Z,20.45
2023-01-09T07:00:13.658Z,20.49
2023-01-09T07:02:40.218Z,20.65
2023-01-09T07:05:08.612Z,20.66
2023-01-09T07:07:35.158Z,20.65
2023-01-09T07:10:01.881Z,20.59
2023-01-09T07:12:28.445Z,20.54
2023-01-09T07:14:57.498Z,20.56
2023-01-09T07:17:24.470Z,20.56
2023-01-09T07:19:51.126Z,20.55
2023-01-09T07:22:18.258Z,20.54
2023-01-09T07:24:45.063Z,20.53
2023-01-09T07:27:11.998Z,20.48
2023-01-09T07:29:38.598Z,20.44
2023-01-09T07:32:05.389Z,20.42
2023-01-09T07:34:31.971Z,20.46
2023-01-09T07:36:58.644Z,20.42
2023-01-09T07:39:25.227Z,20.50
2023-01-09T07:41:51.799Z,20.44
2023-01-09T07:44:18.440Z,20.42
2023-01-09T07:46:45.026Z,20.49
2023-01-09T07:49:11.654Z,20.52
2023-01-09T07:51:43.225Z,20.47
2023-01-09T07:54:11.363Z,20.47
2023-01-09T07:56:38.330Z,20.50
2023-01-09T07:59:04.851Z,20.43
2023-01-09T08:01:31.917Z,20.51
2023-01-09T08:03:58.901Z,20.46
2023-01-09T08:06:25.690Z,20.48
2023-01-09T08:08:52.240Z,20.46
2023-01-09T08:11:18.788Z,20.47
2023-01-09T08:13:45.467Z,20.44
2023-01-09T08:16:12.068Z,20.46
2023-01-09T08:18:38.665Z,20.46
2023-01-09T08:21:05.298Z,20.44
2023-01-09T08:23:32.025Z,20.46
2023-01-09T08:25:58.652Z,20.44
2023-01-09T08:28:25.439Z,20.46
2023-01-09T08:30:52.012Z,20.48
2023-01-09T08:33:18.564Z,20.47
2023-01-09T08:35:45.508Z,20.50
2023-01-09T08:38:12.332Z,20.49
2023-01-09T08:40:39.031Z,20.50
2023-01-09T08:43:24.598Z,20.48
2023-01-09T08:46:10.075Z,20.46
2023-01-09T08:48:36.710Z,20.52
2023-01-09T08:51:03.414Z,20.55
2023-01-09T08:53:31.477Z,20.51
2023-01-09T08:55:58.107Z,20.50
2023-01-09T08:58:24.704Z,20.49
2023-01-09T09:00:51.267Z,20.34
2023-01-09T09:03:17.999Z,20.45
2023-01-09T09:05:46.684Z,20.38
2023-01-09T09:08:13.812Z,20.22
2023-01-09T09:10:40.390Z,20.34
2023-01-09T09:13:06.983Z,20.34
2023-01-09T09:15:34.415Z,20.32
2023-01-09T09:18:03.462Z,20.43
2023-01-09T09:20:33.099Z,20.45
2023-01-09T09:22:59.689Z,20.45
2023-01-09T09:25:27.349Z,20.44
2023-01-09T09:27:55.919Z,20.45
2023-01-09T09:30:23.373Z,20.43
2023-01-09T09:32:49.990Z,20.41
2023-01-09T09:35:21.160Z,20.46
2023-01-09T09:37:58.310Z,20.42
2023-01-09T09:40:42.929Z,20.50
2023-01-09T09:43:41.611Z,20.47
2023-01-09T09:46:11.819Z,20.39
2023-01-09T09:48:48.202Z,20.46
2023-01-09T09:51:43.842Z,20.37
2023-01-09T09:54:14.870Z,20.35
2023-01-09T09:56:51.076Z,20.37
2023-01-09T09:59:21.274Z,20.38
2023-01-09T10:02:02.408Z,20.34
2023-01-09T10:04:32.272Z,20.39
2023-01-09T10:07:09.484Z,20.36
2023-01-09T10:09:57.586Z,20.40
2023-01-09T10:12:29.989Z,20.40
2023-01-09T10:15:03.272Z,20.39
2023-01-09T10:17:38.914Z,20.35
2023-01-09T10:20:24.707Z,20.39
2023-01-09T10:23:27.581Z,20.38
2023-01-09T10:26:06.737Z,20.50
2023-01-09T10:29:21.295Z,20.36
2023-01-09T10:32:07.780Z,20.35
2023-01-09T10:35:02.095Z,20.38
2023-01-09T10:37:34.117Z,20.40
2023-01-09T10:40:25.043Z,20.46
2023-01-09T10:43:07.332Z,20.42
2023-01-09T10:45:40.667Z,20.45
2023-01-09T10:48:33.631Z,20.46
2023-01-09T10:51:00.298Z,20.45
2023-01-09T10:53:38.567Z,20.51
2023-01-09T10:56:37.375Z,20.43
2023-01-09T10:59:04.071Z,20.45
2023-01-09T11:01:33.450Z,20.40
2023-01-09T11:04:02.190Z,20.48
2023-01-09T11:06:46.321Z,20.55
2023-01-09T11:09:15.092Z,20.51
2023-01-09T11:11:42.048Z,20.43
2023-01-09T11:14:27.554Z,20.48
2023-01-09T11:16:56.963Z,20.47
2023-01-09T11:19:24.391Z,20.49
2023-01-09T11:21:51.026Z,20.45
2023-01-09T11:24:23.926Z,20.48
2023-01-09T11:26:52.716Z,20.48
2023-01-09T11:29:24.391Z,20.47
2023-01-09T11:32:01.976Z,20.46
2023-01-09T11:34:32.122Z,20.48
2023-01-09T11:37:11.808Z,20.44
2023-01-09T11:39:41.853Z,20.42
2023-01-09T11:42:44.487Z,20.48
2023-01-09T11:45:20.678Z,20.45
2023-01-09T11:47:47.776Z,20.47
2023-01-09T11:50:18.617Z,20.46
2023-01-09T11:52:49.436Z,20.39
2023-01-09T11:55:19.511Z,20.38
2023-01-09T11:57:46.073Z,20.38
2023-01-09T12:00:47.811Z,20.37
2023-01-09T12:03:56.320Z,20.34
2023-01-09T12:06:44.157Z,20.35
2023-01-09T12:09:35.260Z,20.36
2023-01-09T12:12:17.574Z,20.37
2023-01-09T12:15:08.634Z,20.43
2023-01-09T12:17:57.085Z,20.42
2023-01-09T12:20:54.053Z,20.46
2023-01-09T12:23:31.031Z,20.46
2023-01-09T12:26:19.309Z,20.48
2023-01-09T12:28:58.013Z,20.49
2023-01-09T12:31:49.029Z,20.52
2023-01-09T12:34:18.267Z,20.49
2023-01-09T12:37:18.188Z,20.43
2023-01-09T12:40:11.488Z,20.37
2023-01-09T12:43:12.239Z,20.59
2023-01-09T12:45:51.072Z,20.55
2023-01-09T12:48:47.904Z,20.53
2023-01-09T12:51:26.475Z,20.49
2023-01-09T12:54:27.006Z,20.52
2023-01-09T12:57:00.491Z,20.57
2023-01-09T12:59:41.914Z,20.65
2023-01-09T13:02:22.909Z,20.61
2023-01-09T13:04:56.952Z,20.58
2023-01-09T13:07:30.364Z,20.50
2023-01-09T13:10:04.988Z,20.65
2023-01-09T13:12:36.927Z,20.58
2023-01-09T13:15:40.835Z,20.54
2023-01-09T13:18:21.339Z,20.42
2023-01-09T13:20:52.118Z,20.42
2023-01-09T13:23:23.994Z,20.45
2023-01-09T13:25:54.141Z,20.38
2023-01-09T13:28:50.496Z,20.32
2023-01-09T13:31:50.757Z,20.35
2023-01-09T13:34:23.894Z,20.33
2023-01-09T13:36:55.789Z,20.29
2023-01-09T13:39:28.252Z,20.43
2023-01-09T13:42:17.867Z,20.38
2023-01-09T13:44:46.833Z,20.48
2023-01-09T13:47:23.570Z,20.57
2023-01-09T13:49:50.124Z,20.55
2023-01-09T13:52:41.434Z,20.53
2023-01-09T13:55:16.684Z,20.54
2023-01-09T13:58:05.503Z,20.55
2023-01-09T14:00:34.805Z,20.62
2023-01-09T14:03:32.843Z,20.72
2023-01-09T14:05:59.537Z,20.68
2023-01-09T14:08:28.305Z,20.59
2023-01-09T14:11:01.164Z,20.57
2023-01-09T14:13:38.172Z,20.59
2023-01-09T14:16:07.740Z,20.54
2023-01-09T14:18:37.669Z,20.50
2023-01-09T14:23:53.760Z,20.42
2023-01-09T14:26:26.044Z,20.48
2023-01-09T14:29:12.522Z,20.45
2023-01-09T14:31:39.098Z,20.34
2023-01-09T14:34:39.148Z,20.30
2023-01-09T14:37:10.008Z,20.34
2023-01-09T14:39:39.481Z,20.31
2023-01-09T14:42:15.797Z,20.35
2023-01-09T14:45:01.221Z,20.27
2023-01-09T14:47:30.833Z,20.27
2023-01-09T14:50:08.216Z,20.32
2023-01-09T14:52:45.892Z,20.30
2023-01-09T14:55:21.269Z,20.29
2023-01-09T14:57:52.151Z,20.30
2023-01-09T15:00:18.990Z,20.37
2023-01-09T15:02:47.225Z,20.33
2023-01-09T15:05:21.607Z,20.33
2023-01-09T15:07:58.142Z,20.38
2023-01-09T15:10:37.914Z,20.38
2023-01-09T15:13:07.866Z,20.38
2023-01-09T15:15:35.651Z,20.38
2023-01-09T15:18:06.716Z,20.37
2023-01-09T15:20:34.646Z,20.36
2023-01-09T15:23:01.356Z,20.35
2023-01-09T15:25:39.989Z,20.42
2023-01-09T15:28:25.858Z,20.43
2023-01-09T15:31:03.505Z,20.40
2023-01-09T15:33:30.473Z,20.38
2023-01-09T15:36:02.076Z,20.42
2023-01-09T15:38:32.373Z,20.40
2023-01-09T15:41:04.351Z,20.39
2023-01-09T15:43:31.938Z,20.40
2023-01-09T15:45:59.214Z,20.38
2023-01-09T15:48:29.701Z,20.41
2023-01-09T15:51:05.100Z,20.38
2023-01-09T15:53:31.721Z,20.38
2023-01-09T15:56:13.431Z,20.34
2023-01-09T15:58:47.128Z,20.36
2023-01-09T16:01:31.498Z,20.33
2023-01-09T16:04:12.604Z,20.33
2023-01-09T16:06:47.349Z,20.35
2023-01-09T16:09:29.209Z,20.32
2023-01-09T16:12:01.883Z,20.32
2023-01-09T16:14:34.710Z,20.32
2023-01-09T16:17:07.575Z,20.28
2023-01-09T16:20:11.232Z,20.28
2023-01-09T16:22:52.406Z,20.24
2023-01-09T16:25:28.366Z,20.26
2023-01-09T16:28:21.241Z,20.24
2023-01-09T16:31:00.718Z,20.25
2023-01-09T16:33:30.259Z,20.23
2023-01-09T16:35:58.679Z,20.26
2023-01-09T16:38:28.614Z,20.26
2023-01-09T16:41:33.286Z,20.26
2023-01-09T16:43:59.911Z,20.24
2023-01-09T16:46:27.090Z,20.29
2023-01-09T16:48:53.728Z,20.23
2023-01-09T16:51:22.606Z,20.24
2023-01-09T16:53:50.167Z,20.25
2023-01-09T16:56:26.876Z,20.36
2023-01-09T16:58:54.749Z,20.29
2023-01-09T17:01:22.421Z,20.31
2023-01-09T17:03:49.758Z,20.21
2023-01-09T17:06:31.871Z,20.28
2023-01-09T17:08:58.900Z,20.20
2023-01-09T17:11:31.486Z,20.30
2023-01-09T17:14:02.361Z,20.25
2023-01-09T17:16:29.713Z,20.17
2023-01-09T17:18:56.713Z,20.24
2023-01-09T17:21:25.521Z,20.18
2023-01-09T17:24:12.275Z,20.24
2023-01-09T17:26:59.367Z,20.26
2023-01-09T17:29:26.436Z,20.23
2023-01-09T17:31:53.072Z,20.24
2023-01-09T17:34:19.913Z,20.19
2023-01-09T17:36:46.693Z,20.24
2023-01-09T17:39:14.806Z,20.18
2023-01-09T17:41:41.855Z,20.19
2023-01-09T17:44:11.069Z,20.18
2023-01-09T17:46:40.600Z,20.24
2023-01-09T17:49:10.336Z,20.22
2023-01-09T17:51:36.881Z,20.26
2023-01-09T17:54:03.884Z,20.26
2023-01-09T17:56:34.813Z,20.24
2023-01-09T17:59:01.395Z,20.22
2023-01-09T18:01:28.079Z,20.23
2023-01-09T18:03:54.746Z,20.21
2023-01-09T18:06:22.215Z,20.26
2023-01-09T18:08:48.933Z,20.26
2023-01-09T18:11:18.699Z,20.24
2023-01-09T18:13:46.872Z,20.24
2023-01-09T18:16:15.888Z,20.25
2023-01-09T18:18:42.491Z,20.23
2023-01-09T18:21:09.496Z,20.23
2023-01-09T18:23:36.418Z,20.24
2023-01-09T18:26:07.157Z,20.21
2023-01-09T18:28:37.214Z,20.18
2023-01-09T18:31:04.805Z,20.18
2023-01-09T18:33:32.193Z,20.20
2023-01-09T18:36:08.221Z,20.27
2023-01-09T18:38:35.018Z,20.18
2023-01-09T18:41:03.000Z,20.20
2023-01-09T18:43:30.017Z,20.23
2023-01-09T18:45:56.942Z,20.21
2023-01-09T18:48:24.022Z,20.24
2023-01-09T18:50:50.698Z,20.24
2023-01-09T18:53:17.273Z,20.24
2023-01-09T18:55:43.853Z,20.21
2023-01-09T18:58:10.599Z,20.24
2023-01-09T19:00:37.197Z,20.16
2023-01-09T19:03:03.865Z,20.22
2023-01-09T19:05:32.427Z,20.24
2023-01-09T19:07:58.981Z,20.21
2023-01-09T19:10:25.530Z,20.16
2023-01-09T19:12:52.074Z,20.17
2023-01-09T19:15:18.776Z,20.17
2023-01-09T19:17:46.869Z,20.18
2023-01-09T19:20:13.542Z,20.17
2023-01-09T19:22:40.309Z,20.15
2023-01-09T19:25:07.147Z,20.13
2023-01-09T19:27:33.847Z,20.17
2023-01-09T19:30:00.500Z,20.18
2023-01-09T19:32:27.220Z,20.16
2023-01-09T19:34:53.780Z,20.16
2023-01-09T19:37:20.413Z,20.13
2023-01-09T19:39:47.059Z,20.18
2023-01-09T19:42:14.422Z,20.19
2023-01-09T19:44:41.022Z,20.21
2023-01-09T19:47:08.137Z,20.22
2023-01-09T19:49:34.790Z,20.19
2023-01-09T19:52:01.331Z,20.17
2023-01-09T19:54:29.205Z,20.15
2023-01-09T19:56:55.988Z,20.16
2023-01-09T19:59:22.615Z,20.13
2023-01-09T20:01:49.706Z,20.11
2023-01-09T20:04:17.507Z,20.11
2023-01-09T20:06:49.133Z,20.15
2023-01-09T20:09:18.173Z,20.09
2023-01-09T20:11:44.929Z,20.15
2023-01-09T20:14:13.830Z,20.10
2023-01-09T20:16:41.416Z,20.14
2023-01-09T20:19:10.567Z,20.09
2023-01-09T20:21:37.717Z,20.10
2023-01-09T20:24:06.015Z,20.12
2023-01-09T20:26:36.855Z,20.15
2023-01-09T20:29:04.133Z,20.07
2023-01-09T20:31:32.476Z,20.07
2023-01-09T20:34:02.119Z,20.04
2023-01-09T20:36:30.498Z,20.07
2023-01-09T20:38:59.757Z,20.03
2023-01-09T20:41:27.516Z,20.07
2023-01-09T20:44:07.183Z,20.05
2023-01-09T20:46:37.899Z,20.10
2023-01-09T20:49:07.470Z,20.05
2023-01-09T20:51:36.194Z,20.08
2023-01-09T20:54:03.781Z,20.08
2023-01-09T20:56:31.491Z,20.04
2023-01-09T20:58:59.485Z,20.06
2023-01-09T21:01:27.993Z,20.07
2023-01-09T21:03:56.134Z,20.05
2023-01-09T21:06:24.936Z,20.08
2023-01-09T21:08:52.986Z,20.07
2023-01-09T21:11:21.419Z,20.05
2023-01-09T21:13:48.401Z,20.08
2023-01-09T21:16:17.496Z,20.12
2023-01-09T21:18:44.381Z,20.03
2023-01-09T21:21:16.601Z,20.03
2023-01-09T21:23:51.915Z,20.09
2023-01-09T21:26:22.291Z,20.09
2023-01-09T21:28:54.966Z,20.09
2023-01-09T21:31:30.793Z,20.08
2023-01-09T21:33:57.584Z,20.09
2023-01-09T21:36:24.414Z,20.12
2023-01-09T21:38:54.127Z,20.07
2023-01-09T21:41:40.346Z,20.08
2023-01-09T21:44:25.575Z,20.06
2023-01-09T21:46:52.238Z,20.04
2023-01-09T21:49:25.286Z,20.10
2023-01-09T21:51:55.737Z,20.08
2023-01-09T21:54:23.415Z,20.08
2023-01-09T21:56:53.262Z,20.09
2023-01-09T21:59:20.124Z,20.01
2023-01-09T22:01:48.312Z,20.05
2023-01-09T22:04:16.865Z,20.02
2023-01-09T22:06:43.731Z,20.03
2023-01-09T22:09:10.523Z,19.98
2023-01-09T22:11:41.224Z,20.06
2023-01-09T22:14:10.920Z,20.06
2023-01-09T22:16:37.838Z,20.07
2023-01-09T22:19:04.512Z,20.09
2023-01-09T22:21:31.303Z,20.11
2023-01-09T22:23:57.864Z,20.08
2023-01-09T22:26:24.461Z,20.06
2023-01-09T22:28:51.066Z,20.07
2023-01-09T22:31:20.332Z,20.07
2023-01-09T22:33:54.334Z,20.07
2023-01-09T22:36:20.969Z,20.02
2023-01-09T22:38:47.705Z,20.09
2023-01-09T22:41:14.927Z,20.21
2023-01-09T22:43:41.566Z,20.39
2023-01-09T22:46:11.517Z,20.59
2023-01-09T22:48:39.312Z,20.77
2023-01-09T22:51:17.678Z,20.93
2023-01-09T22:53:45.548Z,21.04
2023-01-09T22:56:14.805Z,21.20
2023-01-09T22:58:41.562Z,21.28
2023-01-09T23:01:10.918Z,21.43
2023-01-09T23:03:38.050Z,21.48
2023-01-09T23:06:12.875Z,21.58
2023-01-09T23:08:39.999Z,21.59
2023-01-09T23:11:09.403Z,21.61
2023-01-09T23:13:36.324Z,21.61
2023-01-09T23:16:04.634Z,21.71
2023-01-09T23:18:31.402Z,21.90
2023-01-09T23:21:02.020Z,21.87
2023-01-09T23:23:30.918Z,21.81
2023-01-09T23:26:00.412Z,21.84
2023-01-09T23:28:28.105Z,21.89
2023-01-09T23:30:54.727Z,21.90
2023-01-09T23:33:21.413Z,21.92
2023-01-09T23:35:48.661Z,21.92
2023-01-09T23:38:15.721Z,21.93
2023-01-09T23:40:42.690Z,21.98
2023-01-09T23:43:11.095Z,21.99
2023-01-09T23:45:38.869Z,22.01
2023-01-09T23:48:07.332Z,22.02
2023-01-09T23:50:34.264Z,22.04
2023-01-09T23:53:00.926Z,22.07
2023-01-09T23:55:28.006Z,22.09
2023-01-09T23:57:55.428Z,22.05
